map of CZU home
CZU - Airport
Location
City:  Corozal, Sucre, Colombia
Name:Las Brujas Airport
ICAO:SKCZ
IATA:CZU

Details
Type:Airport (Aerodrome, Airfield)
Latitude:9°20'00"N (9.333333)
Longitude:75°17'00"W (-75.283332)
Elevation:528 ft (161 m)
Variation:7.31°W (WMM2015 magnetic declination)
-0.13° annual change
Runways:1
Longest:4930 × 98 ft (1503 × 30 m), paved

Time
Time Zone:UTC-5
Local Time:

Weather
METAR:SKCZ 161400Z VRB02KT 9999 SCT020 28/25 A2987

Related Locations
Nearby:
Farthest:XCH: 12335 mi / 19852 km
Christmas Island, CX

Find:

   beyond  
but within

Other Information
Maps:
NOTAMs:
Links:
Sources:

  
  • flag of Colombia
  • flag of Sucre
  

Sectional Chart

Flight Planning
at skyvector.com

Satellite Image

Google Maps Satellite view

 

Copyright © 2004-2018 Karl L. Swartz. All rights reserved.
The Great Circle Mapper name and logo are trademarks of the Great Circle Mapper.
All other trademarks mentioned herein belong to their respective owners.
Please see credits for attibutions and further copyright information.

  Follow gcmap on Facebook Follow gcmap on Twitter Follow gcmap on Google+ GCmap on LinkedIn

hCard Microformat

Geo Microformat